createdAt,value
2023-02-12T00:02:22.031Z,43.00
2023-02-12T00:04:48.692Z,38.00
2023-02-12T00:07:15.286Z,40.75
2023-02-12T00:09:41.950Z,38.50
2023-02-12T00:12:08.775Z,42.25
2023-02-12T00:14:37.487Z,39.75
2023-02-12T00:17:04.219Z,41.50
2023-02-12T00:19:31.206Z,40.25
2023-02-12T00:21:57.887Z,40.50
2023-02-12T00:24:24.462Z,40.50
2023-02-12T00:26:51.157Z,42.25
2023-02-12T00:29:17.744Z,41.00
2023-02-12T00:31:44.367Z,39.75
2023-02-12T00:34:11.543Z,41.00
2023-02-12T00:36:38.195Z,40.00
2023-02-12T00:39:04.825Z,42.25
2023-02-12T00:41:31.446Z,38.25
2023-02-12T00:43:58.129Z,39.50
2023-02-12T00:46:24.951Z,40.50
2023-02-12T00:48:51.676Z,39.75
2023-02-12T00:51:18.269Z,39.25
2023-02-12T00:53:44.902Z,39.50
2023-02-12T00:56:11.569Z,41.00
2023-02-12T00:58:38.142Z,42.50
2023-02-12T01:01:04.953Z,43.75
2023-02-12T01:03:31.683Z,38.75
2023-02-12T01:05:58.583Z,37.00
2023-02-12T01:08:26.637Z,38.75
2023-02-12T01:11:02.103Z,40.75
2023-02-12T01:13:30.425Z,41.50
2023-02-12T01:16:04.539Z,42.00
2023-02-12T01:18:31.193Z,42.25
2023-02-12T01:20:58.992Z,39.00
2023-02-12T01:23:25.824Z,41.00
2023-02-12T01:25:52.762Z,42.00
2023-02-12T01:28:19.715Z,41.00
2023-02-12T01:30:47.339Z,39.25
2023-02-12T01:33:13.936Z,42.00
2023-02-12T01:35:40.604Z,42.75
2023-02-12T01:38:07.224Z,41.25
2023-02-12T01:40:33.886Z,41.25
2023-02-12T01:43:02.496Z,43.00
2023-02-12T01:45:29.048Z,36.00
2023-02-12T01:47:57.008Z,42.25
2023-02-12T01:50:23.682Z,39.50
2023-02-12T01:52:56.176Z,43.75
2023-02-12T01:55:22.946Z,41.50
2023-02-12T01:57:49.831Z,43.25
2023-02-12T02:00:22.107Z,41.50
2023-02-12T02:02:53.460Z,45.00
2023-02-12T02:05:44.061Z,41.50
2023-02-12T02:08:12.488Z,41.75
2023-02-12T02:10:39.848Z,44.00
2023-02-12T02:13:42.329Z,42.25
2023-02-12T02:16:26.018Z,42.00
2023-02-12T02:19:02.672Z,42.25
2023-02-12T02:21:59.905Z,42.50
2023-02-12T02:24:53.888Z,43.00
2023-02-12T02:27:30.960Z,43.75
2023-02-12T02:30:22.640Z,44.75
2023-02-12T02:33:24.307Z,41.75
2023-02-12T02:36:05.281Z,43.75
2023-02-12T02:39:05.377Z,42.25
2023-02-12T02:41:36.197Z,43.50
2023-02-12T02:44:10.465Z,47.50
2023-02-12T02:46:46.265Z,47.00
2023-02-12T02:49:24.467Z,43.00
2023-02-12T02:51:56.737Z,44.25
2023-02-12T02:54:28.276Z,43.00
2023-02-12T02:57:01.680Z,44.00
2023-02-12T02:59:38.237Z,45.25
2023-02-12T03:02:29.398Z,46.75
2023-02-12T03:05:02.881Z,42.75
2023-02-12T03:07:36.875Z,44.50
2023-02-12T03:10:14.876Z,43.00
2023-02-12T03:12:50.045Z,44.50
2023-02-12T03:15:49.120Z,45.00
2023-02-12T03:18:26.830Z,45.00
2023-02-12T03:21:02.444Z,43.00
2023-02-12T03:23:38.636Z,47.00
2023-02-12T03:26:10.996Z,44.75
2023-02-12T03:28:39.004Z,44.25
2023-02-12T03:31:49.604Z,43.75
2023-02-12T03:34:30.232Z,43.50
2023-02-12T03:37:07.345Z,45.00
2023-02-12T03:39:42.783Z,42.00
2023-02-12T03:42:37.377Z,41.75
2023-02-12T03:45:39.567Z,46.00
2023-02-12T03:48:31.900Z,47.00
2023-02-12T03:51:31.833Z,45.25
2023-02-12T03:53:58.554Z,43.50
2023-02-12T03:56:43.019Z,44.25
2023-02-12T03:59:10.535Z,45.75
2023-02-12T04:01:37.390Z,44.75
2023-02-12T04:04:06.838Z,42.75
2023-02-12T04:06:34.054Z,45.25
2023-02-12T04:09:09.440Z,44.00
2023-02-12T04:11:59.249Z,43.25
2023-02-12T04:15:01.355Z,45.50
2023-02-12T04:18:25.416Z,44.75
2023-02-12T04:21:08.755Z,48.00
2023-02-12T04:24:00.510Z,42.75
2023-02-12T04:26:34.465Z,44.25
2023-02-12T04:29:09.849Z,45.75
2023-02-12T04:31:55.892Z,46.50
2023-02-12T04:34:53.475Z,47.75
2023-02-12T04:37:39.045Z,46.00
2023-02-12T04:40:10.364Z,47.00
2023-02-12T04:42:48.896Z,47.25
2023-02-12T04:45:22.567Z,42.75
2023-02-12T04:47:49.219Z,46.25
2023-02-12T04:50:15.948Z,49.25
2023-02-12T04:52:42.593Z,44.00
2023-02-12T04:55:09.385Z,47.75
2023-02-12T04:57:36.209Z,46.25
2023-02-12T05:00:05.828Z,47.00
2023-02-12T05:02:34.374Z,50.00
2023-02-12T05:05:01.037Z,47.50
2023-02-12T05:07:27.693Z,47.00
2023-02-12T05:09:54.815Z,48.75
2023-02-12T05:12:21.689Z,48.50
2023-02-12T05:14:48.311Z,47.50
2023-02-12T05:17:14.911Z,47.50
2023-02-12T05:19:41.482Z,42.75
2023-02-12T05:22:08.147Z,44.75
2023-02-12T05:24:34.803Z,46.75
2023-02-12T05:27:01.399Z,47.00
2023-02-12T05:29:28.020Z,48.00
2023-02-12T05:31:54.708Z,44.75
2023-02-12T05:34:21.416Z,48.00
2023-02-12T05:36:50.239Z,44.00
2023-02-12T05:39:17.283Z,43.75
2023-02-12T05:41:43.894Z,47.75
2023-02-12T05:44:12.152Z,46.25
2023-02-12T05:46:38.963Z,45.00
2023-02-12T05:49:05.702Z,46.50
2023-02-12T05:51:32.543Z,45.00
2023-02-12T05:54:01.807Z,45.25
2023-02-12T05:56:33.429Z,44.25
2023-02-12T05:59:06.433Z,47.00
2023-02-12T06:01:36.216Z,47.00
2023-02-12T06:04:05.248Z,45.00
2023-02-12T06:06:33.146Z,46.50
2023-02-12T06:09:00.193Z,43.75
2023-02-12T06:11:27.819Z,46.25
2023-02-12T06:13:54.494Z,44.75
2023-02-12T06:16:24.974Z,44.00
2023-02-12T06:18:52.300Z,46.00
2023-02-12T06:21:21.237Z,45.50
2023-02-12T06:23:49.034Z,46.75
2023-02-12T06:26:16.313Z,46.25
2023-02-12T06:28:43.773Z,46.75
2023-02-12T06:31:28.261Z,48.00
2023-02-12T06:33:58.126Z,43.75
2023-02-12T06:36:25.120Z,44.50
2023-02-12T06:38:52.321Z,46.75
2023-02-12T06:41:19.272Z,46.00
2023-02-12T06:43:45.886Z,44.75
2023-02-12T06:46:13.303Z,47.75
2023-02-12T06:48:40.118Z,45.00
2023-02-12T06:51:13.020Z,42.75
2023-02-12T06:53:40.208Z,30.50
2023-02-12T06:56:12.970Z,47.00
2023-02-12T06:58:42.460Z,45.50
2023-02-12T07:01:21.642Z,46.00
2023-02-12T07:03:51.089Z,42.50
2023-02-12T07:06:18.459Z,44.25
2023-02-12T07:08:45.187Z,47.00
2023-02-12T07:11:11.878Z,42.00
2023-02-12T07:13:40.249Z,46.50
2023-02-12T07:16:10.355Z,46.00
2023-02-12T07:18:38.079Z,45.75
2023-02-12T07:21:06.408Z,43.50
2023-02-12T07:23:33.597Z,46.75
2023-02-12T07:26:03.279Z,46.25
2023-02-12T07:28:33.742Z,44.75
2023-02-12T07:31:07.944Z,44.00
2023-02-12T07:33:35.423Z,48.25
2023-02-12T07:36:03.424Z,47.25
2023-02-12T07:38:30.190Z,45.25
2023-02-12T07:41:05.717Z,45.25
2023-02-12T07:43:32.391Z,45.75
2023-02-12T07:46:09.754Z,46.50
2023-02-12T07:48:36.596Z,44.25
2023-02-12T07:51:05.946Z,45.00
2023-02-12T07:53:32.584Z,47.25
2023-02-12T07:56:24.923Z,46.00
2023-02-12T07:58:53.639Z,46.00
2023-02-12T08:01:24.225Z,47.25
2023-02-12T08:03:51.471Z,44.50
2023-02-12T08:06:26.361Z,43.25
2023-02-12T08:08:57.958Z,42.50
2023-02-12T08:11:26.122Z,47.25
2023-02-12T08:13:53.158Z,47.50
2023-02-12T08:16:24.688Z,45.00
2023-02-12T08:18:52.112Z,47.25
2023-02-12T08:21:21.679Z,46.00
2023-02-12T08:23:52.183Z,44.50
2023-02-12T08:26:22.762Z,46.75
2023-02-12T08:28:55.548Z,43.00
2023-02-12T08:31:27.506Z,46.75
2023-02-12T08:33:55.249Z,43.75
2023-02-12T08:36:30.265Z,43.75
2023-02-12T08:38:59.889Z,46.00
2023-02-12T08:41:28.982Z,45.75
2023-02-12T08:43:58.154Z,45.25
2023-02-12T08:46:26.934Z,47.00
2023-02-12T08:48:56.172Z,47.00
2023-02-12T08:51:26.160Z,49.25
2023-02-12T08:53:55.809Z,47.75
2023-02-12T08:56:23.538Z,40.75
2023-02-12T08:58:50.888Z,47.75
2023-02-12T09:01:20.784Z,46.50
2023-02-12T09:03:48.492Z,46.50
2023-02-12T09:06:17.599Z,48.00
2023-02-12T09:08:44.346Z,45.75
2023-02-12T09:11:13.742Z,44.75
2023-02-12T09:13:40.982Z,49.50
2023-02-12T09:16:07.874Z,45.00
2023-02-12T09:18:34.932Z,44.00
2023-02-12T09:21:10.100Z,48.00
2023-02-12T09:23:37.650Z,46.25
2023-02-12T09:26:08.696Z,43.25
2023-02-12T09:28:36.087Z,44.50
2023-02-12T09:31:10.825Z,43.00
2023-02-12T09:33:37.630Z,44.00
2023-02-12T09:36:06.498Z,46.75
2023-02-12T09:38:33.374Z,39.00
2023-02-12T09:40:59.941Z,44.00
2023-02-12T09:43:32.648Z,36.00
2023-02-12T09:46:13.678Z,42.75
2023-02-12T09:48:50.601Z,45.00
2023-02-12T09:51:17.378Z,41.50
2023-02-12T09:53:46.989Z,43.75
2023-02-12T09:56:16.378Z,36.25
2023-02-12T09:58:51.076Z,45.50
2023-02-12T10:01:20.537Z,42.25
2023-02-12T10:03:49.795Z,42.50
2023-02-12T10:06:33.656Z,40.25
2023-02-12T10:09:03.326Z,46.25
2023-02-12T10:11:53.167Z,44.25
2023-02-12T10:14:49.680Z,43.00
2023-02-12T10:17:43.131Z,43.25
2023-02-12T10:20:09.702Z,43.75
2023-02-12T10:22:56.162Z,41.25
2023-02-12T10:25:32.714Z,41.00
2023-02-12T10:28:02.820Z,46.50
2023-02-12T10:30:35.282Z,42.75
2023-02-12T10:33:07.633Z,46.75
2023-02-12T10:35:35.580Z,42.75
2023-02-12T10:38:14.003Z,40.50
2023-02-12T10:40:44.933Z,42.25
2023-02-12T10:43:13.306Z,40.50
2023-02-12T10:45:42.989Z,42.25
2023-02-12T10:48:30.237Z,46.50
2023-02-12T10:51:08.937Z,41.50
2023-02-12T10:53:37.321Z,46.25
2023-02-12T10:56:13.317Z,39.75
2023-02-12T10:59:00.515Z,48.00
2023-02-12T11:01:28.710Z,44.25
2023-02-12T11:03:57.278Z,40.25
2023-02-12T11:06:27.821Z,47.25
2023-02-12T11:08:55.016Z,46.00
2023-02-12T11:11:21.957Z,43.25
2023-02-12T11:14:02.706Z,43.75
2023-02-12T11:16:35.608Z,43.50
2023-02-12T11:19:08.801Z,43.50
2023-02-12T11:21:36.544Z,44.00
2023-02-12T11:24:28.292Z,42.75
2023-02-12T11:27:13.678Z,41.50
2023-02-12T11:29:40.718Z,44.00
2023-02-12T11:32:09.746Z,43.75
2023-02-12T11:34:37.096Z,44.75
2023-02-12T11:37:05.212Z,41.75
2023-02-12T11:39:40.016Z,44.25
2023-02-12T11:42:16.863Z,44.25
2023-02-12T11:44:50.289Z,45.25
2023-02-12T11:47:27.331Z,45.50
2023-02-12T11:50:15.918Z,43.00
2023-02-12T11:52:43.265Z,43.25
2023-02-12T11:55:32.295Z,42.50
2023-02-12T11:58:05.923Z,26.75
2023-02-12T12:00:38.074Z,46.25
2023-02-12T12:03:16.309Z,43.25
2023-02-12T12:05:49.972Z,40.75
2023-02-12T12:08:50.002Z,40.75
2023-02-12T12:11:25.130Z,41.25
2023-02-12T12:14:04.145Z,38.25
2023-02-12T12:17:13.844Z,39.00
2023-02-12T12:19:52.697Z,41.75
2023-02-12T12:22:33.451Z,41.25
2023-02-12T12:25:54.608Z,42.00
2023-02-12T12:28:33.379Z,39.75
2023-02-12T12:31:18.006Z,38.75
2023-02-12T12:34:03.539Z,41.00
2023-02-12T12:37:06.825Z,38.75
2023-02-12T12:40:00.214Z,44.00
2023-02-12T12:42:44.906Z,33.75
2023-02-12T12:45:25.617Z,37.25
2023-02-12T12:47:52.168Z,36.75
2023-02-12T12:50:30.853Z,41.50
2023-02-12T12:52:57.484Z,37.50
2023-02-12T12:55:33.300Z,40.25
2023-02-12T12:58:20.801Z,37.00
2023-02-12T13:00:59.720Z,36.50
2023-02-12T13:03:45.618Z,41.50
2023-02-12T13:06:37.351Z,40.00
2023-02-12T13:09:11.054Z,37.50
2023-02-12T13:12:02.291Z,37.75
2023-02-12T13:14:44.332Z,35.50
2023-02-12T13:17:25.864Z,35.00
2023-02-12T13:20:07.490Z,37.75
2023-02-12T13:22:42.665Z,39.50
2023-02-12T13:25:36.804Z,36.75
2023-02-12T13:28:06.074Z,34.25
2023-02-12T13:30:45.186Z,38.50
2023-02-12T13:33:20.599Z,36.50
2023-02-12T13:35:51.797Z,33.50
2023-02-12T13:38:35.052Z,38.25
2023-02-12T13:41:05.974Z,35.75
2023-02-12T13:44:03.314Z,32.50
2023-02-12T13:46:53.777Z,33.75
2023-02-12T13:49:56.641Z,32.25
2023-02-12T13:52:36.884Z,32.75
2023-02-12T13:55:09.676Z,31.50
2023-02-12T13:57:36.309Z,34.25
2023-02-12T14:00:08.457Z,36.25
2023-02-12T14:02:37.256Z,34.00
2023-02-12T14:05:26.426Z,33.50
2023-02-12T14:07:56.331Z,34.50
2023-02-12T14:10:34.017Z,35.00
2023-02-12T14:13:09.659Z,37.00
2023-02-12T14:15:41.076Z,36.75
2023-02-12T14:18:28.218Z,34.75
2023-02-12T14:21:12.734Z,35.75
2023-02-12T14:23:47.280Z,38.25
2023-02-12T14:26:16.436Z,32.00
2023-02-12T14:29:04.386Z,37.75
2023-02-12T14:31:39.376Z,30.75
2023-02-12T14:34:06.104Z,34.25
2023-02-12T14:36:32.680Z,33.00
2023-02-12T14:39:20.542Z,36.25
2023-02-12T14:41:48.966Z,34.00
2023-02-12T14:44:18.453Z,32.75
2023-02-12T14:46:49.332Z,35.00
2023-02-12T14:49:55.719Z,34.75
2023-02-12T14:52:28.819Z,36.00
2023-02-12T14:54:56.965Z,32.75
2023-02-12T14:57:27.884Z,31.00
2023-02-12T15:00:34.079Z,29.00
2023-02-12T15:03:12.672Z,31.75
2023-02-12T15:06:07.122Z,31.75
2023-02-12T15:08:57.660Z,37.25
2023-02-12T15:11:33.661Z,36.75
2023-02-12T15:14:21.276Z,36.50
2023-02-12T15:17:33.658Z,35.00
2023-02-12T15:20:22.628Z,33.50
2023-02-12T15:22:49.314Z,31.50
2023-02-12T15:25:26.602Z,34.75
2023-02-12T15:28:00.670Z,35.50
2023-02-12T15:30:32.000Z,38.00
2023-02-12T15:33:02.448Z,31.25
2023-02-12T15:35:33.431Z,31.75
2023-02-12T15:38:01.285Z,35.00
2023-02-12T15:40:31.932Z,36.00
2023-02-12T15:43:04.540Z,32.25
2023-02-12T15:45:34.082Z,33.00
2023-02-12T15:48:10.105Z,36.50
2023-02-12T15:50:47.884Z,35.00
2023-02-12T15:53:15.888Z,34.25
2023-02-12T15:55:47.764Z,32.00
2023-02-12T15:58:22.260Z,35.00
2023-02-12T16:00:49.593Z,34.50
2023-02-12T16:03:32.541Z,38.25
2023-02-12T16:06:06.526Z,33.75
2023-02-12T16:08:35.566Z,34.25
2023-02-12T16:11:13.751Z,35.75
2023-02-12T16:13:45.443Z,34.75
2023-02-12T16:16:12.009Z,35.50
2023-02-12T16:18:40.542Z,37.25
2023-02-12T16:21:20.518Z,36.00
2023-02-12T16:23:50.062Z,34.25
2023-02-12T16:26:23.477Z,36.00
2023-02-12T16:28:54.332Z,36.00
2023-02-12T16:31:25.772Z,37.00
2023-02-12T16:33:56.175Z,34.00
2023-02-12T16:36:22.825Z,38.25
2023-02-12T16:38:53.609Z,37.00
2023-02-12T16:41:20.479Z,29.75
2023-02-12T16:43:49.493Z,38.75
2023-02-12T16:46:19.630Z,39.75
2023-02-12T16:48:51.830Z,39.00
2023-02-12T16:51:23.295Z,37.25
2023-02-12T16:53:53.867Z,36.25
2023-02-12T16:56:22.524Z,39.50
2023-02-12T16:58:52.244Z,40.75
2023-02-12T17:01:22.914Z,38.75
2023-02-12T17:03:58.288Z,37.25
2023-02-12T17:06:30.251Z,38.25
2023-02-12T17:08:57.872Z,39.50
2023-02-12T17:11:25.864Z,45.75
2023-02-12T17:13:54.422Z,43.25
2023-02-12T17:16:30.801Z,42.25
2023-02-12T17:18:59.701Z,43.50
2023-02-12T17:21:38.079Z,41.25
2023-02-12T17:24:22.171Z,41.50
2023-02-12T17:26:50.847Z,46.25
2023-02-12T17:29:18.338Z,39.50
2023-02-12T17:31:45.368Z,43.75
2023-02-12T17:34:12.147Z,43.00
2023-02-12T17:36:38.884Z,41.25
2023-02-12T17:39:08.198Z,47.00
2023-02-12T17:41:35.211Z,40.25
2023-02-12T17:44:01.986Z,42.75
2023-02-12T17:46:29.250Z,43.00
2023-02-12T17:48:57.673Z,40.25
2023-02-12T17:51:25.072Z,41.25
2023-02-12T17:53:51.729Z,43.50
2023-02-12T17:56:21.201Z,42.00
2023-02-12T17:58:48.761Z,44.50
2023-02-12T18:01:17.732Z,45.50
2023-02-12T18:03:44.538Z,42.50
2023-02-12T18:06:14.236Z,42.50
2023-02-12T18:08:41.649Z,41.00
2023-02-12T18:11:11.014Z,42.75
2023-02-12T18:13:38.051Z,41.00
2023-02-12T18:16:10.062Z,40.25
2023-02-12T18:18:37.176Z,41.25
2023-02-12T18:21:11.657Z,40.25
2023-02-12T18:23:39.155Z,43.75
2023-02-12T18:26:14.284Z,41.75
2023-02-12T18:28:41.257Z,43.00
2023-02-12T18:31:08.775Z,44.50
2023-02-12T18:33:36.232Z,44.00
2023-02-12T18:36:07.504Z,44.00
2023-02-12T18:38:36.122Z,44.50
2023-02-12T18:41:08.223Z,45.25
2023-02-12T18:43:36.129Z,46.25
2023-02-12T18:46:13.892Z,43.25
2023-02-12T18:48:41.651Z,47.00
2023-02-12T18:51:10.349Z,44.25
2023-02-12T18:53:37.098Z,47.50
2023-02-12T18:56:05.892Z,45.50
2023-02-12T18:58:32.907Z,45.75
2023-02-12T19:01:00.190Z,47.75
2023-02-12T19:03:27.365Z,47.50
2023-02-12T19:05:54.189Z,44.75
2023-02-12T19:08:20.849Z,46.75
2023-02-12T19:10:49.500Z,49.00
2023-02-12T19:13:16.130Z,47.00
2023-02-12T19:15:42.974Z,48.00
2023-02-12T19:18:09.556Z,50.00
2023-02-12T19:20:40.109Z,49.50
2023-02-12T19:23:06.811Z,46.75
2023-02-12T19:25:43.207Z,47.00
2023-02-12T19:28:10.747Z,46.75
2023-02-12T19:30:39.126Z,47.25
2023-02-12T19:33:05.980Z,47.50
2023-02-12T19:35:33.590Z,48.00
2023-02-12T19:38:01.786Z,48.25
2023-02-12T19:40:28.498Z,43.00
2023-02-12T19:42:55.109Z,47.75
2023-02-12T19:45:21.778Z,46.00
2023-02-12T19:47:50.744Z,48.50
2023-02-12T19:50:17.375Z,49.75
2023-02-12T19:52:43.975Z,46.00
2023-02-12T19:55:10.571Z,47.25
2023-02-12T19:57:38.631Z,46.25
2023-02-12T20:00:06.479Z,45.75
2023-02-12T20:02:33.668Z,48.50
2023-02-12T20:05:00.339Z,48.50
2023-02-12T20:07:27.002Z,48.50
2023-02-12T20:09:53.671Z,49.00
2023-02-12T20:12:20.365Z,47.50
2023-02-12T20:14:46.978Z,47.50
2023-02-12T20:17:14.377Z,45.75
2023-02-12T20:19:40.997Z,47.75
2023-02-12T20:22:07.650Z,48.50
2023-02-12T20:24:34.626Z,49.50
2023-02-12T20:27:02.602Z,44.75
2023-02-12T20:29:29.399Z,46.50
2023-02-12T20:31:56.215Z,49.50
2023-02-12T20:34:23.000Z,47.50
2023-02-12T20:36:49.845Z,49.00
2023-02-12T20:39:19.098Z,48.75
2023-02-12T20:41:46.527Z,48.50
2023-02-12T20:44:16.075Z,47.75
2023-02-12T20:46:45.977Z,47.25
2023-02-12T20:49:14.482Z,49.75
2023-02-12T20:51:41.299Z,48.50
2023-02-12T20:54:08.198Z,45.00
2023-02-12T20:56:36.167Z,47.25
2023-02-12T20:59:04.382Z,47.00
2023-02-12T21:01:34.887Z,46.25
2023-02-12T21:04:05.013Z,46.00
2023-02-12T21:06:32.657Z,45.50
2023-02-12T21:08:59.290Z,47.00
2023-02-12T21:11:28.606Z,45.25
2023-02-12T21:14:12.515Z,45.75
2023-02-12T21:16:44.821Z,43.50
2023-02-12T21:19:13.986Z,47.50
2023-02-12T21:21:41.846Z,50.00
2023-02-12T21:24:12.907Z,44.25
2023-02-12T21:26:39.530Z,45.00
2023-02-12T21:29:06.214Z,47.50
2023-02-12T21:31:44.872Z,47.00
2023-02-12T21:34:14.714Z,44.50
2023-02-12T21:36:42.354Z,47.25
2023-02-12T21:39:12.687Z,46.75
2023-02-12T21:41:40.857Z,48.75
2023-02-12T21:44:13.373Z,49.25
2023-02-12T21:46:40.866Z,47.25
2023-02-12T21:49:08.413Z,48.00
2023-02-12T21:51:38.706Z,45.25
2023-02-12T21:54:08.799Z,47.75
2023-02-12T21:56:44.233Z,47.75
2023-02-12T21:59:11.318Z,49.00
2023-02-12T22:01:43.006Z,47.00
2023-02-12T22:04:10.519Z,48.00
2023-02-12T22:06:40.353Z,47.25
2023-02-12T22:09:08.839Z,46.00
2023-02-12T22:11:37.368Z,45.50
2023-02-12T22:14:04.981Z,48.25
2023-02-12T22:16:31.858Z,44.50
2023-02-12T22:19:01.784Z,45.25
2023-02-12T22:21:35.104Z,42.00
2023-02-12T22:24:06.904Z,42.00
2023-02-12T22:26:34.008Z,44.00
2023-02-12T22:29:09.927Z,45.50
2023-02-12T22:31:39.074Z,45.25
2023-02-12T22:34:09.882Z,45.25
2023-02-12T22:36:37.929Z,41.00
2023-02-12T22:39:05.397Z,45.50
2023-02-12T22:41:32.892Z,42.50
2023-02-12T22:44:01.117Z,45.75
2023-02-12T22:46:28.074Z,45.00
2023-02-12T22:48:54.723Z,44.50
2023-02-12T22:51:27.412Z,44.00
2023-02-12T22:53:55.283Z,43.25
2023-02-12T22:56:22.895Z,42.75
2023-02-12T22:58:57.201Z,46.75
2023-02-12T23:01:24.862Z,45.50
2023-02-12T23:03:51.911Z,45.25
2023-02-12T23:06:21.267Z,43.75
2023-02-12T23:08:52.819Z,45.50
2023-02-12T23:11:20.110Z,44.25
2023-02-12T23:13:47.398Z,45.25
2023-02-12T23:16:14.048Z,44.25
2023-02-12T23:18:40.604Z,18.25
2023-02-12T23:21:07.278Z,43.25
2023-02-12T23:23:33.882Z,42.25
2023-02-12T23:26:00.829Z,48.00
2023-02-12T23:28:27.567Z,39.00
2023-02-12T23:30:54.337Z,43.50
2023-02-12T23:33:21.363Z,43.50
2023-02-12T23:35:48.701Z,43.50
2023-02-12T23:38:16.611Z,45.75
2023-02-12T23:40:43.669Z,46.25
2023-02-12T23:43:10.904Z,42.75
2023-02-12T23:45:37.708Z,42.00
2023-02-12T23:48:04.449Z,42.50
2023-02-12T23:50:31.292Z,43.75
2023-02-12T23:52:59.335Z,40.50
2023-02-12T23:55:26.201Z,42.25
2023-02-12T23:57:52.911Z,44.25
